Time;durP1;ratioP1;P1;durP2;ratioP2;P2;SDS_P1;SDS_P2;PMS_P1;PMS_P2;Temp;Humidity;BMP_temperature;BMP_pressure;BME280_temperature;BME280_humidity;BME280_pressure;Samples;Min_cycle;Max_cycle;Signal;HPM_P1;HPM_P2
2024/01/16 00:00:10;;;;;;;9.27;6.23;;;-0.30;75.10;;;-1.57;81.10;97072.59;5049143;28;20479;-77
2024/01/16 00:02:38;;;;;;;9.97;5.70;;;-0.30;75.20;;;-1.50;80.49;97087.88;5047466;28;20468;-79
2024/01/16 00:05:07;;;;;;;5.20;4.70;;;-0.20;75.00;;;-2.06;80.65;97028.25;5057655;28;20523;-77
2024/01/16 00:07:35;;;;;;;9.13;6.40;;;-0.20;74.80;;;-1.63;81.00;97094.47;5045171;28;20504;-77
2024/01/16 00:10:02;;;;;;;7.10;5.43;;;-0.30;74.90;;;-1.67;80.50;97092.28;5067467;28;20474;-76
2024/01/16 00:12:29;;;;;;;9.70;5.50;;;-0.30;74.90;;;-1.60;80.60;97098.59;5044267;28;20450;-77
2024/01/16 00:14:56;;;;;;;6.03;5.37;;;-0.30;74.80;;;-1.62;80.63;97100.56;5041965;28;20455;-77
2024/01/16 00:17:24;;;;;;;6.37;5.03;;;-0.30;74.70;;;-1.71;80.36;97103.22;5042705;28;20456;-78
2024/01/16 00:19:52;;;;;;;9.40;4.43;;;-0.30;74.60;;;-1.76;79.96;97088.78;5055731;28;20474;-78
2024/01/16 00:22:19;;;;;;;7.90;4.97;;;-0.40;74.40;;;-1.69;80.79;97094.28;5050567;28;20486;-73
2024/01/16 00:24:47;;;;;;;5.77;4.47;;;-0.30;74.80;;;-1.67;80.51;97108.19;5047840;28;20948;-77
2024/01/16 00:27:14;;;;;;;7.67;4.87;;;-0.30;74.70;;;-1.69;80.09;97120.75;5056406;28;20444;-78
2024/01/16 00:29:41;;;;;;;7.00;5.40;;;-0.30;74.50;;;-1.73;80.46;97115.78;5049304;28;20448;-77
2024/01/16 00:32:09;;;;;;;8.20;5.33;;;-0.30;74.30;;;-1.71;80.47;97124.41;5047498;28;20459;-77
2024/01/16 00:34:36;;;;;;;6.47;4.60;;;-0.30;74.60;;;-1.75;80.36;97128.34;5048248;28;20541;-77
2024/01/16 00:37:05;;;;;;;9.63;5.43;;;-0.30;74.30;;;-1.71;81.02;97113.81;5038944;28;20452;-81
2024/01/16 00:39:35;;;;;;;7.43;4.47;;;-0.40;74.70;;;-1.74;80.15;97124.72;5063554;28;20468;-78
2024/01/16 00:42:03;;;;;;;5.47;4.80;;;-0.30;74.50;;;-1.73;80.64;97136.97;5054159;28;20467;-77
2024/01/16 00:44:30;;;;;;;6.93;5.07;;;-0.40;74.60;;;-1.74;80.69;97129.19;5053094;28;20445;-77
2024/01/16 00:46:57;;;;;;;6.77;3.70;;;-0.40;74.50;;;-1.74;80.55;97134.47;5036522;28;20454;-78
2024/01/16 00:49:25;;;;;;;7.10;5.50;;;-0.40;74.40;;;-1.77;80.61;97138.25;5047448;28;20443;-76
2024/01/16 00:51:52;;;;;;;5.10;4.60;;;-0.40;74.40;;;-1.66;80.48;97146.91;5048776;28;20454;-76
2024/01/16 00:54:22;;;;;;;6.13;4.67;;;-0.40;74.60;;;-1.71;80.22;97140.28;5060267;28;20464;-77
2024/01/16 00:56:50;;;;;;;8.80;5.20;;;-0.30;74.50;;;-1.73;80.83;97136.13;5062171;28;20464;-71
2024/01/16 00:59:17;;;;;;;9.17;4.43;;;-0.40;74.70;;;-1.79;79.94;97129.66;5042290;28;21114;-74
2024/01/16 01:01:44;;;;;;;9.70;6.33;;;-0.40;74.20;;;-1.74;80.01;97145.91;5064160;28;20793;-77
2024/01/16 01:04:12;;;;;;;10.10;4.90;;;-0.40;74.20;;;-1.74;80.53;97127.38;5055876;28;20446;-78
2024/01/16 01:06:39;;;;;;;7.03;4.93;;;-0.40;74.40;;;-1.73;80.02;97146.72;5038526;28;20465;-78
2024/01/16 01:09:06;;;;;;;10.10;5.60;;;-0.40;74.20;;;-1.72;80.27;97145.75;5060987;28;20450;-75
2024/01/16 01:11:35;;;;;;;7.60;4.40;;;-0.40;74.20;;;-1.77;80.61;97146.22;5051224;28;20498;-75
2024/01/16 01:14:03;;;;;;;7.97;5.30;;;-0.40;74.30;;;-1.78;80.39;97154.31;5047319;28;20506;-77
2024/01/16 01:16:30;;;;;;;7.13;5.30;;;-0.40;74.10;;;-1.75;80.12;97162.75;5060314;28;20541;-77
2024/01/16 01:18:57;;;;;;;7.37;5.40;;;-0.40;74.10;;;-1.78;80.11;97147.19;5057285;28;20486;-77
2024/01/16 01:21:24;;;;;;;7.60;4.20;;;-0.40;74.10;;;-2.25;80.12;97086.72;5046347;28;20525;-75
2024/01/16 01:23:51;;;;;;;9.53;5.23;;;-0.40;74.20;;;-1.75;80.02;97157.47;5050688;28;20505;-75
2024/01/16 01:26:19;;;;;;;9.60;5.77;;;-0.40;74.40;;;-1.77;80.30;97170.03;5059991;28;20457;-72
2024/01/16 01:28:48;;;;;;;8.87;6.50;;;-0.40;74.30;;;-1.88;80.45;97175.63;5042511;28;20468;-77
2024/01/16 01:31:15;;;;;;;8.00;5.63;;;-0.50;74.20;;;-1.75;80.27;97170.72;5048356;28;20459;-78
2024/01/16 01:33:42;;;;;;;4.67;4.23;;;-0.40;74.50;;;-1.79;80.68;97179.97;5049829;28;20929;-76
2024/01/16 01:36:10;;;;;;;10.50;7.23;;;-0.40;74.50;;;-1.83;81.14;97173.34;5065391;28;21952;-71
2024/01/16 01:38:37;;;;;;;6.87;5.67;;;-0.50;74.50;;;-1.77;80.97;97171.88;5042979;28;20448;-76
2024/01/16 01:41:04;;;;;;;11.73;6.53;;;-0.50;74.60;;;-1.77;81.07;97193.06;5040425;28;20450;-76
2024/01/16 01:43:32;;;;;;;8.13;5.73;;;-0.50;74.60;;;-1.78;80.56;97184.28;5043743;28;20520;-75
2024/01/16 01:46:12;;;;;;;8.03;5.93;;;-0.50;74.50;;;-1.94;80.91;97184.19;5033881;28;20450;-76
2024/01/16 01:48:42;;;;;;;8.30;6.83;;;-0.50;74.50;;;-1.81;80.87;97183.78;5034893;28;20450;-76
2024/01/16 01:51:10;;;;;;;11.80;5.90;;;-0.50;74.60;;;-1.83;81.03;97189.22;5049100;28;20546;-77
2024/01/16 01:53:39;;;;;;;7.90;5.87;;;-0.50;74.50;;;-1.82;80.36;97185.59;5040798;28;21050;-76
2024/01/16 01:56:10;;;;;;;12.10;6.97;;;-0.50;74.50;;;-2.17;81.03;97121.19;5041270;28;20527;-78
2024/01/16 01:58:38;;;;;;;8.63;6.70;;;-0.50;74.70;;;-1.81;81.34;97186.44;5040103;28;20440;-76
2024/01/16 02:01:08;;;;;;;8.60;6.27;;;-0.50;74.80;;;-1.87;81.14;97193.19;5050183;28;20469;-77
2024/01/16 02:03:42;;;;;;;8.43;6.57;;;-0.50;74.90;;;-1.90;81.16;97193.47;5049549;28;20560;-78
2024/01/16 02:06:11;;;;;;;10.30;6.13;;;-0.50;74.70;;;-1.83;81.38;97206.91;5041251;28;20469;-77
2024/01/16 02:08:38;;;;;;;8.37;5.67;;;-0.50;74.70;;;-1.81;80.95;97205.78;5049016;28;20558;-78
2024/01/16 02:11:06;;;;;;;8.57;5.90;;;-0.50;74.80;;;-1.82;81.26;97212.06;5045802;28;20470;-79
2024/01/16 02:13:34;;;;;;;14.33;6.80;;;-0.50;74.80;;;-1.87;81.67;97204.59;5048278;28;20500;-80
2024/01/16 02:16:03;;;;;;;7.67;6.37;;;-0.50;74.90;;;-1.71;81.33;97203.88;5044959;28;21010;-79
2024/01/16 02:18:32;;;;;;;8.50;6.60;;;-0.50;75.00;;;-1.97;81.12;97187.16;5052260;28;20451;-79
2024/01/16 02:21:02;;;;;;;8.03;5.97;;;-0.50;74.70;;;-1.86;81.76;97200.94;5061699;28;20472;-78
2024/01/16 02:23:32;;;;;;;11.87;6.70;;;-0.50;75.00;;;-1.90;81.59;97199.63;5053148;28;20459;-77
2024/01/16 02:25:59;;;;;;;11.70;6.30;;;-0.50;75.10;;;-2.02;81.53;97191.09;5053516;28;20513;-76
2024/01/16 02:28:26;;;;;;;10.40;7.20;;;-0.50;74.90;;;-1.91;81.73;97219.13;5043574;28;20450;-79
2024/01/16 02:30:53;;;;;;;9.17;6.90;;;-0.60;74.90;;;-1.85;81.22;97215.84;5038590;28;20971;-77
2024/01/16 02:33:21;;;;;;;8.17;6.60;;;-0.50;74.80;;;-2.48;81.03;97117.19;5043688;28;20503;-77
2024/01/16 02:35:48;;;;;;;8.83;5.53;;;-0.50;75.00;;;-1.87;81.41;97217.00;5045876;28;20452;-76
2024/01/16 02:38:16;;;;;;;10.03;6.93;;;-0.50;74.80;;;-2.00;82.01;97218.25;5046331;28;20545;-74
2024/01/16 02:40:44;;;;;;;7.80;6.40;;;-0.60;74.90;;;-1.97;82.03;97226.88;5046250;28;20565;-78
2024/01/16 02:43:12;;;;;;;10.33;6.43;;;-0.60;74.90;;;-1.87;81.84;97224.97;5050472;28;21090;-78
2024/01/16 02:45:39;;;;;;;5.00;4.30;;;-0.50;75.10;;;-2.00;81.22;97215.59;5052913;28;20481;-75
2024/01/16 02:48:07;;;;;;;8.17;6.10;;;-0.50;75.00;;;-1.94;81.63;97218.59;5056488;28;20466;-79
2024/01/16 02:50:35;;;;;;;10.97;6.37;;;-0.60;74.90;;;-1.95;81.26;97235.47;5049314;28;20458;-77
2024/01/16 02:53:02;;;;;;;9.90;4.97;;;-0.60;74.70;;;-2.04;81.71;97224.00;5062636;28;20464;-79
2024/01/16 02:55:29;;;;;;;9.03;6.40;;;-0.50;74.80;;;-1.95;81.35;97233.69;5058697;28;20454;-75
2024/01/16 02:57:58;;;;;;;12.10;6.07;;;-0.60;74.80;;;-1.95;81.05;97241.63;5050571;28;20962;-75
2024/01/16 03:00:25;;;;;;;8.17;5.10;;;-0.50;74.70;;;-1.94;80.90;97247.75;5068275;28;20502;-72
2024/01/16 03:02:52;;;;;;;7.40;5.60;;;-0.50;74.60;;;-1.96;81.22;97245.25;5055726;28;20471;-75
2024/01/16 03:05:19;;;;;;;10.50;6.17;;;-0.60;74.50;;;-1.91;80.86;97250.06;5066718;28;21173;-75
2024/01/16 03:07:46;;;;;;;9.47;6.53;;;-0.60;74.60;;;-1.85;81.46;97254.75;5052054;28;20452;-75
2024/01/16 03:10:14;;;;;;;8.73;6.57;;;-0.60;74.70;;;-1.87;80.95;97252.25;5055641;28;20536;-76
2024/01/16 03:12:41;;;;;;;11.20;6.67;;;-0.50;74.60;;;-1.87;80.66;97251.44;5064977;28;20848;-75
2024/01/16 03:15:10;;;;;;;9.70;6.13;;;-0.50;74.50;;;-1.89;81.24;97253.41;5042753;28;20461;-74
2024/01/16 03:17:38;;;;;;;11.00;5.93;;;-0.60;74.60;;;-2.00;80.93;97242.09;5056156;28;20798;-78
2024/01/16 03:20:07;;;;;;;8.27;6.50;;;-0.60;74.60;;;-1.86;80.69;97253.09;5055090;28;20480;-78
2024/01/16 03:22:33;;;;;;;10.20;6.33;;;-0.60;74.70;;;-1.94;81.33;97245.09;5050033;28;20465;-74
2024/01/16 03:25:02;;;;;;;9.53;6.30;;;-0.60;74.40;;;-1.79;80.44;97264.72;5046830;28;20460;-72
2024/01/16 03:27:29;;;;;;;11.90;5.50;;;-0.50;74.60;;;-1.83;80.93;97244.84;5046653;28;20786;-78
2024/01/16 03:29:57;;;;;;;7.87;5.83;;;-0.50;74.50;;;-1.83;81.03;97259.88;5034953;28;20507;-78
2024/01/16 03:32:25;;;;;;;6.33;5.60;;;-0.50;74.60;;;-1.95;81.32;97254.03;5042586;28;20975;-75
2024/01/16 03:34:52;;;;;;;12.83;6.40;;;-0.60;74.50;;;-1.98;81.15;97251.69;5044790;28;20453;-77
2024/01/16 03:37:20;;;;;;;10.10;6.03;;;-0.60;74.70;;;-1.92;81.69;97259.00;5044085;28;20449;-79
2024/01/16 03:39:47;;;;;;;8.70;6.23;;;-0.60;74.90;;;-1.98;81.66;97259.63;5045396;28;20532;-80
2024/01/16 03:42:15;;;;;;;8.73;6.70;;;-0.60;75.30;;;-1.82;81.22;97265.03;5040909;28;20459;-79
2024/01/16 03:44:42;;;;;;;13.00;6.90;;;-0.60;74.90;;;-1.88;80.83;97244.50;5058764;28;21027;-80
2024/01/16 03:47:09;;;;;;;7.97;6.20;;;-0.50;74.90;;;-1.79;80.86;97258.59;5041020;28;20461;-78
2024/01/16 03:49:38;;;;;;;10.53;6.93;;;-0.50;74.90;;;-1.91;81.14;97261.50;5044594;28;20445;-78
2024/01/16 03:52:06;;;;;;;11.83;7.30;;;-0.50;74.60;;;-1.92;81.28;97254.56;5060480;28;22332;-81
2024/01/16 03:54:34;;;;;;;10.37;7.40;;;-0.50;74.80;;;-1.98;81.95;97263.09;5053849;28;20450;-80
2024/01/16 03:57:01;;;;;;;9.87;7.40;;;-0.60;74.70;;;-1.95;81.16;97254.88;5050807;28;20807;-79
2024/01/16 03:59:29;;;;;;;9.37;5.60;;;-0.60;74.80;;;-1.92;81.11;97259.00;5076146;28;20441;-75
2024/01/16 04:01:56;;;;;;;9.90;6.80;;;-0.60;74.60;;;-2.09;81.75;97247.47;5055605;28;20549;-79
2024/01/16 04:04:24;;;;;;;10.73;6.20;;;-0.70;74.50;;;-2.09;81.78;97258.88;5055129;28;20473;-77
2024/01/16 04:06:52;;;;;;;10.53;7.20;;;-0.70;74.70;;;-2.01;81.59;97261.59;5071612;28;20458;-74
2024/01/16 04:09:20;;;;;;;12.63;7.50;;;-0.70;74.60;;;-2.18;81.32;97251.88;5050650;28;20549;-79
2024/01/16 04:11:51;;;;;;;9.37;6.17;;;-0.70;74.60;;;-2.10;81.66;97264.34;5045931;28;20468;-73
2024/01/16 04:14:18;;;;;;;11.73;6.83;;;-0.70;74.90;;;-2.09;81.52;97255.41;5040584;28;20454;-80
2024/01/16 04:16:46;;;;;;;8.97;6.67;;;-0.70;74.80;;;-2.09;82.06;97252.78;5044328;28;20458;-78
2024/01/16 04:19:13;;;;;;;8.80;5.73;;;-0.80;74.90;;;-2.14;81.81;97251.41;5059491;28;22050;-77
2024/01/16 04:21:41;;;;;;;12.10;7.03;;;-0.80;74.70;;;-2.05;81.73;97254.13;5058724;28;20491;-81
2024/01/16 04:24:09;;;;;;;12.80;6.90;;;-0.70;74.90;;;-2.07;81.98;97246.31;5059559;28;20503;-82
2024/01/16 04:26:38;;;;;;;11.13;7.20;;;-0.70;75.00;;;-1.94;81.08;97250.38;5048034;28;20458;-80
2024/01/16 04:29:06;;;;;;;13.00;6.80;;;-0.60;75.00;;;-2.06;81.73;97245.34;5047555;28;20467;-81
2024/01/16 04:31:41;;;;;;;7.97;6.00;;;-0.70;74.80;;;-2.09;82.05;97242.19;5044538;28;20461;-81
2024/01/16 04:34:08;;;;;;;11.23;6.13;;;-0.70;74.80;;;-2.09;81.32;97250.94;5045920;28;21102;-80
2024/01/16 04:36:35;;;;;;;9.53;6.93;;;-0.70;74.70;;;-2.22;81.55;97222.22;5044335;28;20454;-77
2024/01/16 04:39:04;;;;;;;9.30;6.33;;;-0.70;74.80;;;-2.09;81.41;97258.88;5042891;28;20465;-77
2024/01/16 04:41:32;;;;;;;15.10;8.13;;;-0.70;74.70;;;-2.00;82.02;97257.97;5069647;28;20524;-78
2024/01/16 04:44:00;;;;;;;9.23;6.37;;;-0.70;74.90;;;-2.13;82.47;97254.88;5050228;28;20487;-77
2024/01/16 04:46:27;;;;;;;14.13;6.37;;;-0.80;74.90;;;-2.01;81.63;97260.75;5060294;28;20459;-81
2024/01/16 04:48:54;;;;;;;13.33;5.97;;;-0.70;75.10;;;-2.03;81.83;97255.63;5065522;28;21028;-78
2024/01/16 04:51:21;;;;;;;10.53;5.97;;;-0.70;74.80;;;-2.07;81.36;97256.91;5046231;28;20481;-77
2024/01/16 04:53:49;;;;;;;8.10;6.37;;;-0.70;75.00;;;-2.07;81.00;97262.19;5053380;28;20495;-78
2024/01/16 04:56:16;;;;;;;12.00;7.00;;;-0.70;74.70;;;-2.23;82.05;97238.25;5045817;28;20947;-73
2024/01/16 04:58:45;;;;;;;10.17;6.13;;;-0.70;74.80;;;-2.06;81.66;97269.16;5039576;28;20472;-81
2024/01/16 05:01:13;;;;;;;8.90;6.40;;;-0.70;75.00;;;-2.22;81.60;97266.38;5054946;28;20491;-78
2024/01/16 05:03:41;;;;;;;7.30;6.30;;;-0.80;74.60;;;-2.18;81.48;97246.59;5053369;28;20463;-79
2024/01/16 05:06:14;;;;;;;8.03;6.70;;;-0.70;74.90;;;-1.94;81.36;97266.28;5046732;28;20736;-79
2024/01/16 05:08:42;;;;;;;13.23;7.93;;;-0.60;74.90;;;-1.94;81.81;97271.56;5047227;28;20446;-79
2024/01/16 05:11:09;;;;;;;12.90;6.90;;;-0.60;74.70;;;-1.98;81.33;97267.56;5062190;28;20451;-79
2024/01/16 05:13:36;;;;;;;12.23;7.00;;;-0.60;74.70;;;-1.90;81.55;97264.97;5046487;28;20450;-75
2024/01/16 05:16:06;;;;;;;11.70;7.20;;;-0.60;74.90;;;-1.90;81.61;97257.03;5042283;28;20462;-80
2024/01/16 05:18:33;;;;;;;10.63;6.77;;;-0.60;74.90;;;-2.05;81.31;97260.22;5039339;28;20467;-79
2024/01/16 05:21:02;;;;;;;15.30;7.20;;;-0.70;74.70;;;-2.09;81.16;97252.78;5056511;28;20480;-76
2024/01/16 05:23:29;;;;;;;8.70;6.70;;;-0.70;74.40;;;-2.16;81.48;97257.84;5044920;28;20459;-77
2024/01/16 05:25:56;;;;;;;11.63;7.00;;;-0.70;74.50;;;-2.23;82.34;97251.50;5062903;28;20453;-79
2024/01/16 05:28:24;;;;;;;12.90;7.00;;;-0.80;74.90;;;-2.32;82.03;97248.78;5040158;28;20449;-78
2024/01/16 05:30:51;;;;;;;11.57;7.47;;;-0.90;74.80;;;-2.29;82.38;97243.19;5046866;28;20447;-77
2024/01/16 05:33:20;;;;;;;10.93;7.80;;;-0.90;75.10;;;-2.36;83.20;97252.69;5051919;28;20471;-77
2024/01/16 05:35:47;;;;;;;11.97;7.30;;;-0.90;75.20;;;-2.33;82.93;97257.72;5038150;28;20500;-77
2024/01/16 05:38:15;;;;;;;17.40;7.37;;;-1.00;75.20;;;-2.27;82.67;97256.28;5045091;28;20457;-77
2024/01/16 05:40:42;;;;;;;9.50;6.70;;;-1.00;75.40;;;-2.31;82.94;97255.75;5044834;28;20503;-74
2024/01/16 05:43:10;;;;;;;11.13;7.97;;;-1.00;75.30;;;-2.31;82.81;97250.44;5044231;28;20466;-75
2024/01/16 05:45:37;;;;;;;11.00;6.90;;;-1.00;75.30;;;-2.29;83.47;97253.78;5062472;28;20971;-76
2024/01/16 05:48:07;;;;;;;10.53;7.63;;;-1.00;75.40;;;-2.26;83.15;97247.34;5063338;28;20486;-76
2024/01/16 05:50:36;;;;;;;13.23;7.77;;;-0.90;75.50;;;-2.28;83.17;97250.13;5048265;28;20454;-77
2024/01/16 05:53:05;;;;;;;10.40;7.67;;;-1.00;75.40;;;-2.33;83.33;97249.78;5040166;28;20857;-74
2024/01/16 05:55:35;;;;;;;10.50;7.10;;;-1.00;75.50;;;-2.36;83.42;97244.75;5051044;28;20513;-74
2024/01/16 05:58:02;;;;;;;14.50;8.20;;;-1.10;75.80;;;-2.33;83.71;97248.94;5044649;28;20451;-75
2024/01/16 06:00:30;;;;;;;11.40;7.93;;;-1.00;75.80;;;-2.25;83.07;97258.75;5049160;28;21375;-78
2024/01/16 06:02:57;;;;;;;12.77;6.70;;;-1.00;75.70;;;-2.36;83.36;97255.34;5040477;28;20447;-81
2024/01/16 06:05:24;;;;;;;9.80;7.70;;;-1.00;75.80;;;-2.28;83.93;97259.88;5041622;28;20449;-79
2024/01/16 06:07:53;;;;;;;10.37;6.37;;;-1.00;75.90;;;-2.19;83.01;97253.69;5037761;28;20577;-81
2024/01/16 06:10:21;;;;;;;9.73;6.90;;;-0.90;75.60;;;-2.18;82.98;97254.53;5040615;28;20793;-78
2024/01/16 06:12:49;;;;;;;13.80;7.40;;;-0.90;75.60;;;-2.36;83.21;97262.47;5047180;28;20580;-78
2024/01/16 06:15:17;;;;;;;11.80;8.40;;;-1.00;75.60;;;-2.31;83.55;97271.63;5057464;28;20452;-78
2024/01/16 06:17:44;;;;;;;11.60;7.70;;;-1.00;75.90;;;-2.25;83.59;97272.84;5048184;28;20529;-78
2024/01/16 06:20:12;;;;;;;11.73;8.20;;;-1.00;75.90;;;-2.24;84.66;97281.59;5057394;28;20459;-77
2024/01/16 06:22:40;;;;;;;13.57;8.33;;;-1.00;76.50;;;-2.25;84.01;97279.94;5061788;28;21038;-77
2024/01/16 06:25:09;;;;;;;21.30;8.00;;;-0.90;76.30;;;-2.29;83.78;97263.50;5056611;28;20443;-77
2024/01/16 06:27:37;;;;;;;13.67;8.63;;;-0.90;76.20;;;-2.05;83.49;97260.22;5047540;28;20954;-79
2024/01/16 06:30:05;;;;;;;14.83;9.47;;;-0.70;76.90;;;-3.40;83.11;97035.50;5044313;28;20443;-78
2024/01/16 06:32:33;;;;;;;11.00;8.20;;;-0.70;76.60;;;-1.91;81.77;97273.91;5033211;28;20455;-79
2024/01/16 06:35:00;;;;;;;13.30;8.37;;;-0.60;75.70;;;-2.01;82.36;97280.13;5043552;28;20533;-78
2024/01/16 06:37:27;;;;;;;11.60;7.87;;;-0.70;75.50;;;-1.94;82.26;97280.34;5033615;28;20458;-72
2024/01/16 06:39:55;;;;;;;14.63;7.30;;;-0.70;75.70;;;-1.94;82.33;97276.88;5050833;28;20456;-73
2024/01/16 06:42:24;;;;;;;11.53;7.43;;;-0.70;75.70;;;-1.89;81.90;97291.31;5039703;28;20498;-75
2024/01/16 06:44:52;;;;;;;11.17;7.83;;;-0.60;75.60;;;-2.01;81.94;97277.50;5058103;28;20460;-74
2024/01/16 06:47:19;;;;;;;11.63;7.83;;;-0.60;75.40;;;-1.83;81.45;97281.91;5044182;28;20463;-82
2024/01/16 06:49:47;;;;;;;11.03;7.60;;;-0.60;75.40;;;-1.97;81.49;97271.88;5050326;28;20956;-73
2024/01/16 06:52:16;;;;;;;14.60;7.30;;;-0.60;75.20;;;-1.88;82.10;97277.06;5067384;28;20468;-85
2024/01/16 06:54:43;;;;;;;13.23;7.43;;;-0.60;75.50;;;-2.02;82.25;97275.00;5060845;28;20451;-83
2024/01/16 06:57:12;;;;;;;10.40;7.50;;;-0.60;75.40;;;-1.87;81.97;97283.22;5081312;28;20463;-83
2024/01/16 06:59:41;;;;;;;13.50;7.27;;;-0.60;75.30;;;-1.90;81.57;97288.81;5071873;28;20496;-80
2024/01/16 07:02:08;;;;;;;13.43;7.17;;;-0.50;75.20;;;-1.92;80.92;97288.13;5086277;28;20481;-84
2024/01/16 07:04:37;;;;;;;12.33;6.93;;;-0.50;74.90;;;-1.93;81.38;97291.75;5068179;28;20463;-83
2024/01/16 07:07:04;;;;;;;14.97;8.27;;;-0.60;75.00;;;-1.88;81.36;97279.72;5050628;28;20472;-82
2024/01/16 07:09:32;;;;;;;16.30;8.63;;;-0.50;75.10;;;-1.85;81.63;97281.25;5049201;28;20462;-84
2024/01/16 07:11:59;;;;;;;12.00;8.40;;;-0.50;75.00;;;-1.90;80.93;97278.22;5047691;28;20960;-82
2024/01/16 07:14:26;;;;;;;12.57;7.60;;;-0.60;74.90;;;-1.89;80.53;97269.31;5068509;28;21232;-82
2024/01/16 07:16:55;;;;;;;13.93;7.90;;;-0.50;74.90;;;-1.90;81.46;97272.91;5043078;28;20873;-82
2024/01/16 07:19:22;;;;;;;12.80;9.20;;;-0.50;75.00;;;-1.92;81.39;97272.25;5042514;28;20540;-82
2024/01/16 07:21:50;;;;;;;13.67;7.80;;;-0.60;75.00;;;-1.83;81.22;97287.22;5053790;28;20857;-76
2024/01/16 07:24:17;;;;;;;10.90;7.43;;;-0.50;75.10;;;-1.89;81.57;97285.19;5049476;28;20459;-77
2024/01/16 07:26:44;;;;;;;14.90;8.73;;;-0.60;75.10;;;-1.93;81.40;97289.13;5051202;28;21135;-73
2024/01/16 07:29:12;;;;;;;16.30;8.80;;;-0.60;75.00;;;-2.26;81.74;97235.91;5049985;28;20459;-79
2024/01/16 07:31:39;;;;;;;14.77;8.57;;;-0.60;75.00;;;-2.06;81.37;97285.03;5050733;28;20464;-77
2024/01/16 07:34:08;;;;;;;11.50;8.27;;;-0.70;74.90;;;-1.91;81.28;97287.13;5046549;28;21016;-75
2024/01/16 07:36:36;;;;;;;14.10;8.47;;;-0.60;75.00;;;-1.93;81.25;97278.53;5062629;28;20446;-79
2024/01/16 07:39:03;;;;;;;20.90;9.70;;;-0.60;75.00;;;-1.82;80.62;97283.56;5057716;28;20446;-78
2024/01/16 07:41:30;;;;;;;11.33;8.77;;;-0.50;74.90;;;-1.91;80.70;97293.28;5055909;28;20471;-77
2024/01/16 07:43:58;;;;;;;12.57;8.33;;;-0.60;74.80;;;-1.92;80.58;97288.13;5052137;28;20768;-76
2024/01/16 07:46:25;;;;;;;9.23;7.20;;;-0.50;74.70;;;-1.69;80.27;97285.00;5062549;28;20464;-76
2024/01/16 07:48:53;;;;;;;10.13;7.53;;;-0.50;74.80;;;-1.66;80.07;97289.97;5053338;28;20505;-79
2024/01/16 07:51:21;;;;;;;11.57;7.63;;;-0.40;74.50;;;-1.75;78.87;97281.97;5049233;28;20486;-77
2024/01/16 07:53:51;;;;;;;9.90;6.90;;;-0.40;74.10;;;-1.53;79.07;97314.25;5047259;28;20531;-80
2024/01/16 07:56:19;;;;;;;15.73;8.70;;;-0.30;74.10;;;-1.47;78.92;97310.13;5047044;28;20462;-76
2024/01/16 07:58:46;;;;;;;12.80;7.50;;;-0.20;74.00;;;-1.45;78.27;97316.09;5042444;28;20450;-77
2024/01/16 08:01:13;;;;;;;10.67;7.47;;;-0.20;73.80;;;-1.57;79.31;97305.75;5047181;28;20483;-81
2024/01/16 08:03:40;;;;;;;12.50;7.90;;;-0.20;73.90;;;-1.47;78.24;97320.75;5050015;28;20460;-79
2024/01/16 08:06:08;;;;;;;11.33;7.70;;;-0.20;73.50;;;-1.45;77.80;97310.81;5057559;28;20453;-80
2024/01/16 08:08:37;;;;;;;10.43;7.03;;;-0.20;73.50;;;-1.37;77.76;97310.03;5050687;28;20514;-80
2024/01/16 08:11:04;;;;;;;10.53;7.57;;;-0.20;73.50;;;-1.46;78.34;97317.91;5039635;28;20460;-78
2024/01/16 08:13:31;;;;;;;14.63;7.97;;;-0.20;73.50;;;-1.44;78.19;97318.63;5040375;28;20459;-78
2024/01/16 08:15:59;;;;;;;13.10;8.33;;;-0.20;73.40;;;-1.55;78.86;97323.31;5042581;28;20466;-75
2024/01/16 08:18:26;;;;;;;14.30;7.60;;;-0.20;73.50;;;-1.41;78.85;97319.28;5045610;28;20461;-79
2024/01/16 08:20:53;;;;;;;13.23;8.47;;;-0.20;73.70;;;-1.37;77.86;97326.75;5043304;28;20456;-79
2024/01/16 08:23:21;;;;;;;11.20;7.60;;;-0.10;73.40;;;-1.05;76.07;97324.44;5037982;28;20459;-76
2024/01/16 08:25:51;;;;;;;12.63;8.27;;;0.00;73.00;;;-1.11;76.40;97333.84;5064449;28;20461;-78
2024/01/16 08:28:18;;;;;;;11.60;7.73;;;0.10;72.80;;;-0.84;76.22;97324.03;5046255;28;20458;-80
2024/01/16 08:30:46;;;;;;;10.30;7.73;;;0.20;73.30;;;-0.93;76.22;97333.78;5055512;28;20467;-81
2024/01/16 08:33:14;;;;;;;12.73;8.43;;;0.30;73.00;;;-0.96;75.10;97312.03;5062107;28;20457;-80
2024/01/16 08:35:42;;;;;;;16.63;7.87;;;0.30;72.40;;;-0.67;74.60;97335.53;5041597;28;20456;-79
2024/01/16 08:38:09;;;;;;;10.97;7.50;;;0.40;72.30;;;-0.74;74.28;97331.84;5040427;28;20464;-77
2024/01/16 08:40:36;;;;;;;12.17;6.90;;;0.40;71.80;;;-0.95;74.92;97334.91;5048439;28;20467;-79
2024/01/16 08:43:05;;;;;;;10.60;7.70;;;0.40;71.70;;;-1.01;75.00;97331.06;5042675;28;21079;-80
2024/01/16 08:45:32;;;;;;;12.80;7.80;;;0.40;71.70;;;-0.75;74.36;97332.84;5047203;28;20470;-79
2024/01/16 08:48:00;;;;;;;10.10;7.00;;;0.40;71.60;;;-1.04;74.59;97331.41;5055269;28;20457;-78
2024/01/16 08:50:27;;;;;;;9.37;6.90;;;0.40;71.20;;;-1.01;75.05;97331.06;5062558;28;20476;-78
2024/01/16 08:52:54;;;;;;;10.40;7.33;;;0.40;71.50;;;-1.24;75.72;97323.69;5046132;28;20515;-76
2024/01/16 08:55:22;;;;;;;10.80;7.80;;;0.20;71.40;;;-1.19;74.49;97316.09;5047373;28;20516;-75
2024/01/16 08:57:49;;;;;;;14.27;9.53;;;0.10;71.20;;;-1.05;74.71;97330.59;5043067;28;20474;-77
2024/01/16 09:00:19;;;;;;;10.47;7.53;;;0.20;71.50;;;-1.18;74.36;97283.28;5066044;28;20469;-75
2024/01/16 09:02:46;;;;;;;12.07;8.43;;;0.40;71.30;;;-1.09;75.37;97333.72;5047284;28;20483;-75
2024/01/16 09:05:14;;;;;;;10.23;6.63;;;0.20;71.30;;;-0.69;73.48;97318.94;5047755;28;20932;-75
2024/01/16 09:07:42;;;;;;;11.00;8.47;;;0.40;70.90;;;-0.59;73.23;97330.25;5061141;28;20447;-73
2024/01/16 09:10:10;;;;;;;17.47;11.70;;;0.60;70.90;;;-0.69;73.82;97334.84;5044512;28;20532;-76
2024/01/16 09:12:37;;;;;;;15.67;8.30;;;0.60;70.90;;;-0.43;71.98;97333.94;5041485;28;20464;-78
2024/01/16 09:15:06;;;;;;;12.40;7.30;;;0.70;70.20;;;-0.22;72.17;97337.97;5044068;28;20460;-76
2024/01/16 09:17:35;;;;;;;14.53;8.70;;;0.80;70.40;;;-0.30;71.31;97331.66;5047399;28;20984;-75
2024/01/16 09:20:02;;;;;;;10.23;7.13;;;0.90;69.80;;;-0.11;71.31;97342.97;5044903;28;20457;-76
2024/01/16 09:22:30;;;;;;;13.50;8.97;;;1.10;69.80;;;-0.52;71.88;97341.06;5047656;28;20576;-76
2024/01/16 09:24:57;;;;;;;15.10;7.33;;;0.90;69.60;;;-0.10;70.29;97349.94;5060044;28;20457;-78
2024/01/16 09:27:24;;;;;;;11.90;7.73;;;1.00;69.20;;;-0.39;71.22;97340.56;5041200;28;20990;-75
2024/01/16 09:29:52;;;;;;;19.03;11.77;;;0.90;69.20;;;-0.52;72.05;97342.88;5064838;28;20518;-78
2024/01/16 09:32:20;;;;;;;13.50;9.73;;;0.80;69.30;;;-0.48;71.64;97342.38;5042495;28;20458;-77
2024/01/16 09:34:48;;;;;;;10.30;7.97;;;0.80;69.20;;;-0.70;71.49;97353.59;5066911;28;20550;-76
2024/01/16 09:37:15;;;;;;;10.80;7.87;;;0.80;69.00;;;-0.38;71.09;97341.44;5043336;28;20462;-72
2024/01/16 09:39:43;;;;;;;16.47;10.87;;;0.80;68.90;;;-0.16;70.19;97342.63;5064377;28;20452;-73
2024/01/16 09:42:11;;;;;;;10.83;7.80;;;1.00;68.80;;;-0.43;71.52;97345.41;5041011;28;20483;-76
2024/01/16 09:44:38;;;;;;;13.30;9.30;;;0.90;69.00;;;-0.44;72.17;97349.06;5049993;28;20513;-76
2024/01/16 09:47:07;;;;;;;11.43;8.07;;;0.90;69.20;;;-0.66;72.91;97350.47;5043557;28;20672;-77
2024/01/16 09:49:34;;;;;;;13.13;9.50;;;0.80;69.40;;;-1.02;73.21;97354.13;5054088;28;20551;-74
2024/01/16 09:52:04;;;;;;;22.50;12.77;;;0.50;69.00;;;-0.69;72.93;97349.97;5039381;28;20479;-76
2024/01/16 09:54:31;;;;;;;15.33;8.90;;;0.50;69.60;;;-0.65;72.25;97357.44;5043976;28;20440;-77
2024/01/16 09:57:02;;;;;;;13.40;9.10;;;0.60;69.10;;;-0.60;72.25;97349.81;5044345;28;20753;-76
2024/01/16 09:59:32;;;;;;;11.47;7.67;;;0.70;69.30;;;-0.50;72.28;97352.34;5047221;28;20454;-76
2024/01/16 10:02:00;;;;;;;11.03;7.53;;;0.80;69.20;;;-0.22;70.63;97353.91;5054252;28;20478;-74
2024/01/16 10:04:28;;;;;;;9.30;7.17;;;1.00;68.70;;;-0.26;70.27;97340.13;5042229;28;20463;-74
2024/01/16 10:06:58;;;;;;;13.20;7.63;;;1.10;68.40;;;-0.26;70.39;97360.53;5043368;28;20461;-75
2024/01/16 10:09:27;;;;;;;13.70;7.30;;;1.10;68.10;;;-0.28;71.83;97360.69;5051364;28;20460;-74
2024/01/16 10:11:56;;;;;;;11.80;7.60;;;1.00;68.60;;;0.02;70.30;97357.59;5048874;28;20470;-74
2024/01/16 10:14:23;;;;;;;17.80;8.57;;;1.20;68.90;;;-0.22;71.13;97348.59;5046608;28;20478;-75
2024/01/16 10:17:02;;;;;;;12.10;7.93;;;1.20;68.60;;;0.03;70.26;97348.63;5037929;28;20444;-75